Terminal Aerodrome Forecast
Issued by NWS Green Bay, WI

Home | Current Version | Previous Version | Text Only | Print | Product List | Glossary Off
Versions: 1 2 3 4 5 6 7 8 9 10 11 12 13 14 15 16 17 18 19 20 21 22 23 24 25 26 27 28 29 30 31 32 33 34 35 36

017
FTUS43 KGRB 061140
TAFGRB
TAF
KGRB 061140Z 0612/0712 17005KT 6SM BR SCT012 OVC150
      TEMPO 0612/0615 4SM BR BKN012
     FM061500 18007KT 5SM BR BKN007
     FM061800 21009G14KT P6SM BKN007
     FM062000 23010G16KT P6SM -SHRASN BKN016
     FM062200 24012G19KT P6SM BKN028
     FM062300 25013G21KT P6SM SCT035=

USA.gov is the U.S. government's official web portal to all federal, state and local government web resources and services.